createdAt,value
2022-11-22T00:00:40.784Z,9.77
2022-11-22T00:03:08.147Z,11.55
2022-11-22T00:05:35.355Z,12.15
2022-11-22T00:08:02.498Z,9.55
2022-11-22T00:10:29.214Z,13.30
2022-11-22T00:12:56.436Z,8.57
2022-11-22T00:15:23.158Z,10.05
2022-11-22T00:17:51.124Z,14.05
2022-11-22T00:20:17.896Z,9.30
2022-11-22T00:22:45.217Z,7.55
2022-11-22T00:25:13.066Z,8.40
2022-11-22T00:27:39.808Z,10.07
2022-11-22T00:30:07.771Z,8.02
2022-11-22T00:32:34.609Z,8.77
2022-11-22T00:35:01.316Z,9.73
2022-11-22T00:37:28.062Z,5.15
2022-11-22T00:39:54.821Z,9.98
2022-11-22T00:42:21.518Z,8.60
2022-11-22T00:44:48.275Z,6.68
2022-11-22T00:47:14.980Z,7.25
2022-11-22T00:49:41.697Z,7.07
2022-11-22T00:52:08.509Z,18.70
2022-11-22T00:54:35.244Z,17.35
2022-11-22T00:57:01.976Z,8.45
2022-11-22T00:59:29.073Z,16.15
2022-11-22T01:01:56.068Z,21.23
2022-11-22T01:04:22.941Z,16.52
2022-11-22T01:06:49.676Z,14.95
2022-11-22T01:09:22.192Z,13.18
2022-11-22T01:11:49.686Z,20.15
2022-11-22T01:14:17.488Z,14.00
2022-11-22T01:16:44.781Z,14.25
2022-11-22T01:19:11.546Z,14.32
2022-11-22T01:21:39.177Z,17.50
2022-11-22T01:24:08.278Z,10.82
2022-11-22T01:26:35.302Z,10.32
2022-11-22T01:29:02.635Z,11.00
2022-11-22T01:31:30.205Z,8.95
2022-11-22T01:33:58.974Z,9.93
2022-11-22T01:36:26.691Z,12.93
2022-11-22T01:38:53.520Z,7.68
2022-11-22T01:41:20.675Z,10.85
2022-11-22T01:43:47.436Z,10.57
2022-11-22T01:46:26.524Z,8.32
2022-11-22T01:49:00.336Z,17.98
2022-11-22T01:51:37.114Z,8.45
2022-11-22T01:54:09.733Z,9.77
2022-11-22T01:56:38.660Z,12.55
2022-11-22T01:59:10.858Z,8.52
2022-11-22T02:01:37.952Z,4.57
2022-11-22T02:04:09.170Z,6.57
2022-11-22T02:06:59.763Z,7.55
2022-11-22T02:09:28.262Z,9.52
2022-11-22T02:11:58.477Z,5.70
2022-11-22T02:14:27.595Z,8.75
2022-11-22T02:16:55.013Z,6.63
2022-11-22T02:19:38.788Z,7.45
2022-11-22T02:22:23.747Z,6.13
2022-11-22T02:24:57.174Z,11.32
2022-11-22T02:27:24.279Z,7.60
2022-11-22T02:29:51.087Z,11.00
2022-11-22T02:32:18.074Z,7.32
2022-11-22T02:34:47.320Z,8.32
2022-11-22T02:37:19.263Z,7.28
2022-11-22T02:39:48.378Z,8.32
2022-11-22T02:42:15.150Z,8.32
2022-11-22T02:44:42.283Z,5.85
2022-11-22T02:47:09.160Z,8.38
2022-11-22T02:49:35.901Z,9.98
2022-11-22T02:52:02.640Z,11.63
2022-11-22T02:54:29.364Z,11.07
2022-11-22T02:56:56.167Z,8.70
2022-11-22T02:59:24.193Z,6.13
2022-11-22T03:01:50.980Z,10.27
2022-11-22T03:04:26.933Z,7.88
2022-11-22T03:06:58.176Z,13.43
2022-11-22T03:09:26.420Z,8.18
2022-11-22T03:11:54.352Z,13.68
2022-11-22T03:14:21.776Z,5.88
2022-11-22T03:16:49.990Z,5.72
2022-11-22T03:19:17.255Z,10.05
2022-11-22T03:21:44.054Z,6.25
2022-11-22T03:24:11.440Z,9.88
2022-11-22T03:26:38.808Z,12.95
2022-11-22T03:29:06.678Z,6.95
2022-11-22T03:31:33.411Z,7.07
2022-11-22T03:34:00.205Z,8.00
2022-11-22T03:36:26.946Z,8.77
2022-11-22T03:38:53.629Z,6.55
2022-11-22T03:41:20.358Z,11.07
2022-11-22T03:43:47.130Z,7.20
2022-11-22T03:46:16.004Z,9.38
2022-11-22T03:48:42.821Z,13.73
2022-11-22T03:51:09.692Z,13.85
2022-11-22T03:53:36.555Z,8.00
2022-11-22T03:56:03.544Z,8.90
2022-11-22T03:58:30.702Z,8.45
2022-11-22T04:00:57.985Z,7.10
2022-11-22T04:03:25.152Z,9.70
2022-11-22T04:05:51.882Z,6.80
2022-11-22T04:08:18.689Z,10.68
2022-11-22T04:10:45.463Z,7.57
2022-11-22T04:13:12.181Z,14.43
2022-11-22T04:15:38.850Z,11.35
2022-11-22T04:18:09.011Z,7.03
2022-11-22T04:20:54.207Z,16.17
2022-11-22T04:23:22.649Z,6.30
2022-11-22T04:25:51.874Z,7.53
2022-11-22T04:28:35.327Z,13.20
2022-11-22T04:31:29.641Z,4.97
2022-11-22T04:33:56.340Z,5.68
2022-11-22T04:36:22.996Z,6.38
2022-11-22T04:38:49.734Z,8.38
2022-11-22T04:41:16.442Z,7.68
2022-11-22T04:44:01.918Z,13.88
2022-11-22T04:46:28.594Z,8.18
2022-11-22T04:48:55.345Z,8.88
2022-11-22T04:51:40.586Z,11.30
2022-11-22T04:54:07.394Z,10.90
2022-11-22T04:56:34.074Z,13.35
2022-11-22T04:59:00.783Z,7.13
2022-11-22T05:01:27.578Z,4.72
2022-11-22T05:03:54.419Z,7.28
2022-11-22T05:06:21.136Z,4.97
2022-11-22T05:08:47.850Z,9.68
2022-11-22T05:11:14.609Z,9.05
2022-11-22T05:13:43.068Z,15.35
2022-11-22T05:16:12.552Z,10.93
2022-11-22T05:18:39.788Z,7.57
2022-11-22T05:21:11.780Z,15.88
2022-11-22T05:23:54.640Z,12.20
2022-11-22T05:26:25.653Z,16.58
2022-11-22T05:28:52.514Z,14.40
2022-11-22T05:31:23.360Z,10.35
2022-11-22T05:33:52.668Z,8.27
2022-11-22T05:36:19.939Z,9.30
2022-11-22T05:38:46.855Z,8.75
2022-11-22T05:41:15.503Z,10.10
2022-11-22T05:43:42.452Z,9.80
2022-11-22T05:46:13.656Z,7.85
2022-11-22T05:48:42.795Z,9.05
2022-11-22T05:51:12.313Z,8.23
2022-11-22T05:53:40.006Z,10.38
2022-11-22T05:56:11.670Z,9.45
2022-11-22T05:58:38.783Z,9.50
2022-11-22T06:01:07.497Z,6.10
2022-11-22T06:03:34.967Z,7.20
2022-11-22T06:06:02.465Z,8.10
2022-11-22T06:08:30.885Z,10.13
2022-11-22T06:11:07.598Z,8.05
2022-11-22T06:13:39.172Z,8.90
2022-11-22T06:16:07.626Z,11.17
2022-11-22T06:18:35.186Z,6.80
2022-11-22T06:21:04.472Z,7.20
2022-11-22T06:23:31.736Z,10.77
2022-11-22T06:26:10.509Z,7.20
2022-11-22T06:28:38.827Z,10.50
2022-11-22T06:31:13.113Z,10.32
2022-11-22T06:33:41.792Z,9.38
2022-11-22T06:36:11.948Z,11.73
2022-11-22T06:38:40.131Z,10.60
2022-11-22T06:41:19.204Z,11.57
2022-11-22T06:43:49.270Z,15.23
2022-11-22T06:46:18.854Z,11.57
2022-11-22T06:48:46.215Z,6.75
2022-11-22T06:51:18.519Z,10.98
2022-11-22T06:53:48.268Z,8.60
2022-11-22T06:56:27.645Z,13.45
2022-11-22T06:58:54.957Z,14.32
2022-11-22T07:01:24.633Z,8.93
2022-11-22T07:03:56.180Z,9.95
2022-11-22T07:06:22.947Z,17.87
2022-11-22T07:08:49.699Z,9.88
2022-11-22T07:11:19.845Z,11.43
2022-11-22T07:13:47.882Z,9.82
2022-11-22T07:16:18.270Z,10.68
2022-11-22T07:18:45.191Z,10.52
2022-11-22T07:21:22.833Z,6.68
2022-11-22T07:23:53.287Z,8.18
2022-11-22T07:26:22.053Z,8.45
2022-11-22T07:28:49.069Z,10.52
2022-11-22T07:31:17.344Z,9.50
2022-11-22T07:33:44.878Z,8.02
2022-11-22T07:36:14.414Z,13.80
2022-11-22T07:38:41.491Z,17.45
2022-11-22T07:41:09.149Z,8.85
2022-11-22T07:43:36.184Z,12.20
2022-11-22T07:46:11.695Z,8.30
2022-11-22T07:48:38.368Z,10.60
2022-11-22T07:51:08.679Z,12.85
2022-11-22T07:53:35.974Z,10.98
2022-11-22T07:56:03.982Z,12.70
2022-11-22T07:58:31.089Z,14.20
2022-11-22T08:00:57.809Z,12.95
2022-11-22T08:03:28.897Z,10.82
2022-11-22T08:06:00.728Z,9.45
2022-11-22T08:08:27.803Z,11.38
2022-11-22T08:10:57.009Z,8.05
2022-11-22T08:13:24.607Z,11.98
2022-11-22T08:15:54.460Z,10.30
2022-11-22T08:18:22.914Z,10.85
2022-11-22T08:20:49.678Z,10.20
2022-11-22T08:23:16.360Z,13.82
2022-11-22T08:25:47.158Z,11.18
2022-11-22T08:28:13.947Z,8.48
2022-11-22T08:30:41.113Z,8.07
2022-11-22T08:33:07.851Z,7.55
2022-11-22T08:35:34.667Z,12.25
2022-11-22T08:38:01.409Z,15.80
2022-11-22T08:40:28.149Z,10.82
2022-11-22T08:42:56.362Z,9.70
2022-11-22T08:45:23.143Z,9.80
2022-11-22T08:47:49.891Z,10.35
2022-11-22T08:50:18.291Z,14.77
2022-11-22T08:52:45.023Z,12.80
2022-11-22T08:55:11.770Z,10.60
2022-11-22T08:57:38.428Z,9.95
2022-11-22T09:00:06.805Z,9.70
2022-11-22T09:02:33.609Z,10.10
2022-11-22T09:05:00.452Z,11.32
2022-11-22T09:10:18.311Z,11.55
2022-11-22T09:12:46.129Z,13.45
2022-11-22T09:15:13.232Z,13.02
2022-11-22T09:17:40.283Z,17.05
2022-11-22T09:20:07.833Z,11.40
2022-11-22T09:22:34.813Z,12.63
2022-11-22T09:25:03.612Z,13.07
2022-11-22T09:27:30.658Z,13.68
2022-11-22T09:29:57.377Z,12.63
2022-11-22T09:32:26.210Z,13.63
2022-11-22T09:34:54.919Z,12.13
2022-11-22T09:37:21.668Z,15.32
2022-11-22T09:39:48.869Z,14.43
2022-11-22T09:42:40.453Z,11.63
2022-11-22T09:45:22.277Z,14.75
2022-11-22T09:47:56.231Z,16.05
2022-11-22T09:50:35.267Z,16.52
2022-11-22T09:53:12.316Z,16.15
2022-11-22T09:55:49.742Z,23.33
2022-11-22T09:58:34.998Z,17.98
2022-11-22T10:01:08.994Z,15.13
2022-11-22T10:03:51.217Z,17.83
2022-11-22T10:06:34.880Z,22.33
2022-11-22T10:09:10.763Z,19.77
2022-11-22T10:11:46.635Z,18.52
2022-11-22T10:14:44.767Z,25.88
2022-11-22T10:17:36.215Z,24.30
2022-11-22T10:20:24.403Z,20.75
2022-11-22T10:22:51.725Z,22.98
2022-11-22T10:25:39.963Z,23.30
2022-11-22T10:28:28.992Z,23.17
2022-11-22T10:31:20.620Z,23.33
2022-11-22T10:34:11.922Z,20.02
2022-11-22T10:36:49.563Z,25.17
2022-11-22T10:39:19.194Z,22.23
2022-11-22T10:41:58.137Z,21.27
2022-11-22T10:44:32.189Z,23.60
2022-11-22T10:47:41.964Z,26.38
2022-11-22T10:50:19.298Z,22.83
2022-11-22T10:53:03.023Z,22.33
2022-11-22T10:55:32.394Z,22.17
2022-11-22T10:58:21.801Z,21.50
2022-11-22T11:00:56.251Z,26.27
2022-11-22T11:03:29.338Z,25.40
2022-11-22T11:06:26.272Z,24.88
2022-11-22T11:10:08.933Z,19.88
2022-11-22T11:11:55.666Z,23.40
2022-11-22T11:14:36.287Z,28.92
2022-11-22T11:17:03.490Z,23.30
2022-11-22T11:19:37.247Z,22.20
2022-11-22T11:22:07.024Z,25.85
2022-11-22T11:24:40.826Z,21.30
2022-11-22T11:27:11.176Z,26.00
2022-11-22T11:29:48.055Z,22.88
2022-11-22T11:32:20.458Z,28.02
2022-11-22T11:37:36.900Z,23.77
2022-11-22T11:40:06.335Z,27.23
2022-11-22T11:42:34.986Z,22.58
2022-11-22T11:45:28.134Z,30.02
2022-11-22T11:47:55.070Z,26.67
2022-11-22T11:50:25.066Z,26.20
2022-11-22T11:53:06.234Z,32.05
2022-11-22T11:55:37.292Z,31.38
2022-11-22T11:58:17.644Z,28.98
2022-11-22T12:00:46.921Z,31.05
2022-11-22T12:03:17.049Z,29.75
2022-11-22T12:05:44.854Z,25.00
2022-11-22T12:08:31.895Z,29.38
2022-11-22T12:11:23.292Z,28.50
2022-11-22T12:16:54.447Z,26.70
2022-11-22T12:19:44.620Z,27.08
2022-11-22T12:22:48.751Z,27.55
2022-11-22T12:25:41.802Z,24.33
2022-11-22T12:28:19.448Z,26.88
2022-11-22T12:31:02.607Z,23.48
2022-11-22T12:33:41.169Z,26.95
2022-11-22T12:36:22.346Z,27.23
2022-11-22T12:38:51.849Z,27.00
2022-11-22T12:41:23.059Z,24.50
2022-11-22T12:43:57.905Z,22.88
2022-11-22T12:46:30.531Z,23.52
2022-11-22T12:49:02.972Z,27.65
2022-11-22T12:52:16.217Z,23.33
2022-11-22T12:54:45.829Z,20.77
2022-11-22T12:57:29.019Z,23.08
2022-11-22T13:00:15.922Z,22.02
2022-11-22T13:02:58.663Z,23.20
2022-11-22T13:05:30.901Z,29.08
2022-11-22T13:08:19.112Z,26.15
2022-11-22T13:10:56.667Z,28.73
2022-11-22T13:13:28.278Z,28.70
2022-11-22T13:15:58.187Z,28.33
2022-11-22T13:18:28.122Z,22.42
2022-11-22T13:21:10.545Z,21.63
2022-11-22T13:24:21.548Z,17.73
2022-11-22T13:27:03.197Z,19.52
2022-11-22T13:29:33.560Z,27.43
2022-11-22T13:32:06.370Z,18.10
2022-11-22T13:34:36.798Z,21.13
2022-11-22T13:37:16.048Z,18.60
2022-11-22T13:39:49.986Z,18.45
2022-11-22T13:42:21.052Z,25.92
2022-11-22T13:45:08.344Z,23.50
2022-11-22T13:47:41.187Z,25.35
2022-11-22T13:50:40.150Z,20.48
2022-11-22T13:53:37.533Z,25.45
2022-11-22T13:56:20.775Z,22.50
2022-11-22T13:59:14.065Z,29.00
2022-11-22T14:01:41.003Z,23.13
2022-11-22T14:04:16.971Z,26.85
2022-11-22T14:06:52.011Z,25.70
2022-11-22T14:09:50.747Z,27.25
2022-11-22T14:12:23.600Z,22.02
2022-11-22T14:15:37.814Z,30.85
2022-11-22T14:18:35.285Z,31.58
2022-11-22T14:21:05.250Z,28.95
2022-11-22T14:23:59.722Z,31.83
2022-11-22T14:26:41.845Z,27.50
2022-11-22T14:29:27.363Z,24.10
2022-11-22T14:32:13.594Z,33.15
2022-11-22T14:35:03.745Z,26.70
2022-11-22T14:37:33.789Z,24.88
2022-11-22T14:40:04.285Z,26.23
2022-11-22T14:42:37.192Z,24.83
2022-11-22T14:45:13.051Z,28.48
2022-11-22T14:47:53.153Z,30.23
2022-11-22T14:50:34.193Z,26.33
2022-11-22T14:53:19.271Z,34.08
2022-11-22T14:55:48.167Z,31.75
2022-11-22T14:58:23.571Z,28.33
2022-11-22T15:01:12.128Z,31.50
2022-11-22T15:09:12.369Z,29.33
2022-11-22T15:09:18.386Z,25.73
2022-11-22T15:10:25.743Z,24.75
2022-11-22T15:13:01.579Z,25.77
2022-11-22T15:59:44.301Z,23.55
2022-11-22T16:06:03.642Z,24.40
2022-11-22T16:07:49.255Z,24.73
2022-11-22T16:10:28.406Z,27.67
2022-11-22T16:12:55.199Z,26.00
2022-11-22T16:15:37.216Z,22.92
2022-11-22T16:18:14.376Z,24.35
2022-11-22T16:21:00.647Z,20.00
2022-11-22T16:23:35.372Z,20.23
2022-11-22T16:26:29.523Z,26.20
2022-11-22T16:29:11.524Z,19.92
2022-11-22T16:31:40.302Z,15.13
2022-11-22T16:34:13.752Z,15.85
2022-11-22T16:36:40.478Z,19.70
2022-11-22T16:39:07.743Z,10.52
2022-11-22T16:41:35.373Z,15.75
2022-11-22T16:44:06.505Z,10.93
2022-11-22T16:46:34.306Z,18.23
2022-11-22T16:49:01.129Z,17.00
2022-11-22T16:51:30.863Z,16.48
2022-11-22T16:54:08.138Z,13.40
2022-11-22T16:56:34.942Z,11.82
2022-11-22T16:59:01.850Z,18.05
2022-11-22T17:01:34.333Z,14.73
2022-11-22T17:04:02.928Z,12.43
2022-11-22T17:06:30.799Z,18.60
2022-11-22T17:08:59.318Z,17.50
2022-11-22T17:11:32.845Z,20.58
2022-11-22T17:14:00.190Z,17.35
2022-11-22T17:16:27.028Z,15.60
2022-11-22T17:18:53.804Z,16.38
2022-11-22T17:21:34.254Z,13.70
2022-11-22T17:24:05.633Z,15.45
2022-11-22T17:26:34.777Z,14.98
2022-11-22T17:29:01.875Z,14.10
2022-11-22T17:31:29.275Z,17.30
2022-11-22T17:33:58.454Z,16.55
2022-11-22T17:36:32.920Z,18.45
2022-11-22T17:39:01.915Z,21.77
2022-11-22T17:41:33.089Z,15.63
2022-11-22T17:44:00.241Z,22.73
2022-11-22T17:46:29.734Z,25.73
2022-11-22T17:48:58.941Z,23.80
2022-11-22T17:51:27.752Z,27.42
2022-11-22T17:53:55.053Z,27.95
2022-11-22T17:56:21.796Z,28.75
2022-11-22T17:58:48.864Z,31.75
2022-11-22T18:01:20.665Z,31.42
2022-11-22T18:03:48.427Z,36.88
2022-11-22T18:06:16.244Z,28.17
2022-11-22T18:08:46.946Z,31.02
2022-11-22T18:11:14.832Z,31.90
2022-11-22T18:13:41.924Z,34.25
2022-11-22T18:16:15.710Z,33.97
2022-11-22T18:18:58.797Z,31.77
2022-11-22T18:21:30.094Z,29.88
2022-11-22T18:24:01.175Z,24.05
2022-11-22T18:26:43.956Z,21.42
2022-11-22T18:32:01.027Z,27.25
2022-11-22T18:34:28.676Z,32.58
2022-11-22T18:37:01.472Z,33.80
2022-11-22T18:39:38.315Z,32.33
2022-11-22T18:42:07.499Z,34.15
2022-11-22T18:44:34.625Z,26.05
2022-11-22T18:47:01.830Z,30.20
2022-11-22T18:49:28.726Z,28.83
2022-11-22T18:51:55.976Z,35.25
2022-11-22T18:54:23.277Z,36.22
2022-11-22T18:56:51.175Z,30.23
2022-11-22T18:59:18.638Z,42.40
2022-11-22T19:01:46.239Z,42.25
2022-11-22T19:04:16.922Z,42.53
2022-11-22T19:06:45.169Z,45.47
2022-11-22T19:09:12.283Z,35.85
2022-11-22T19:11:39.349Z,43.10
2022-11-22T19:14:06.097Z,43.17
2022-11-22T19:16:33.045Z,46.00
2022-11-22T19:18:59.991Z,43.85
2022-11-22T19:21:30.676Z,39.08
2022-11-22T19:23:57.864Z,54.05
2022-11-22T19:26:26.973Z,39.50
2022-11-22T19:28:57.909Z,54.22
2022-11-22T19:31:27.878Z,44.55
2022-11-22T19:33:55.552Z,307.60
2022-11-22T19:36:30.780Z,136.98
2022-11-22T19:38:59.524Z,62.83
2022-11-22T19:41:26.324Z,41.03
2022-11-22T19:43:53.133Z,38.92
2022-11-22T19:46:22.910Z,39.70
2022-11-22T19:48:54.532Z,32.08
2022-11-22T19:51:22.365Z,36.58
2022-11-22T19:53:53.457Z,33.20
2022-11-22T19:56:20.727Z,36.75
2022-11-22T19:58:52.474Z,46.70
2022-11-22T20:01:21.043Z,46.35
2022-11-22T20:03:54.893Z,60.92
2022-11-22T20:06:21.682Z,47.45
2022-11-22T20:08:49.552Z,59.50
2022-11-22T20:11:19.500Z,57.58
2022-11-22T20:13:52.173Z,62.45
2022-11-22T20:16:24.949Z,66.85
2022-11-22T20:19:06.857Z,62.28
2022-11-22T20:21:34.675Z,96.53
2022-11-22T20:24:02.083Z,92.85
2022-11-22T20:26:31.211Z,71.70
2022-11-22T20:29:00.110Z,69.82
2022-11-22T20:31:29.274Z,47.72
2022-11-22T20:33:56.448Z,50.60
2022-11-22T20:36:25.787Z,40.28
2022-11-22T20:38:53.397Z,39.75
2022-11-22T20:41:26.801Z,36.55
2022-11-22T20:43:54.131Z,40.92
2022-11-22T20:46:23.636Z,39.28
2022-11-22T20:48:53.034Z,38.40
2022-11-22T20:51:22.394Z,30.63
2022-11-22T20:53:49.459Z,34.17
2022-11-22T20:56:17.271Z,35.28
2022-11-22T20:58:44.656Z,35.40
2022-11-22T21:01:16.984Z,34.80
2022-11-22T21:06:11.886Z,32.60
2022-11-22T21:08:38.887Z,30.98
2022-11-22T21:11:29.564Z,32.35
2022-11-22T21:13:58.003Z,36.72
2022-11-22T21:16:29.351Z,30.83
2022-11-22T21:19:01.630Z,32.05
2022-11-22T21:21:29.475Z,33.75
2022-11-22T21:23:59.424Z,30.95
2022-11-22T21:26:26.987Z,34.05
2022-11-22T21:28:54.296Z,31.83
2022-11-22T21:31:22.519Z,29.10
2022-11-22T21:33:50.053Z,30.77
2022-11-22T21:36:17.664Z,33.05
2022-11-22T21:38:44.900Z,37.03
2022-11-22T21:44:05.839Z,39.22
2022-11-22T21:46:33.662Z,36.30
2022-11-22T21:49:00.419Z,41.75
2022-11-22T21:51:27.196Z,53.45
2022-11-22T21:54:04.049Z,50.83
2022-11-22T21:56:32.156Z,53.03
2022-11-22T21:58:59.295Z,62.53
2022-11-22T22:01:26.586Z,59.13
2022-11-22T22:03:54.197Z,61.55
2022-11-22T22:06:21.102Z,76.75
2022-11-22T22:08:48.166Z,84.75
2022-11-22T22:11:15.024Z,88.80
2022-11-22T22:13:41.761Z,97.53
2022-11-22T22:16:15.340Z,86.97
2022-11-22T22:18:43.562Z,86.05
2022-11-22T22:21:11.812Z,86.18
2022-11-22T22:23:39.979Z,90.47
2022-11-22T22:26:11.576Z,83.53
2022-11-22T22:28:39.375Z,82.28
2022-11-22T22:31:08.515Z,73.32
2022-11-22T22:33:37.845Z,76.63
2022-11-22T22:36:05.892Z,66.35
2022-11-22T22:38:33.658Z,75.63
2022-11-22T22:41:03.242Z,67.45
2022-11-22T22:43:32.347Z,62.20
2022-11-22T22:46:28.307Z,55.85
2022-11-22T22:48:55.155Z,50.67
2022-11-22T22:51:32.423Z,49.72
2022-11-22T22:54:00.874Z,43.42
2022-11-22T22:56:31.434Z,46.53
2022-11-22T22:59:00.957Z,42.28
2022-11-22T23:01:30.515Z,42.55
2022-11-22T23:03:59.775Z,46.95
2022-11-22T23:06:29.196Z,42.17
2022-11-22T23:08:56.558Z,42.38
2022-11-22T23:11:46.228Z,38.35
2022-11-22T23:14:16.491Z,36.22
2022-11-22T23:16:43.446Z,31.58
2022-11-22T23:19:11.223Z,30.85
2022-11-22T23:21:37.970Z,30.00
2022-11-22T23:24:05.772Z,32.25
2022-11-22T23:26:32.914Z,33.17
2022-11-22T23:29:00.218Z,33.30
2022-11-22T23:31:27.598Z,31.67
2022-11-22T23:33:54.515Z,35.33
2022-11-22T23:36:22.277Z,39.97
2022-11-22T23:38:49.259Z,34.38
2022-11-22T23:41:19.990Z,34.28
2022-11-22T23:43:47.438Z,34.95
2022-11-22T23:46:18.525Z,29.65
2022-11-22T23:48:47.016Z,26.20
2022-11-22T23:51:15.078Z,29.58
2022-11-22T23:53:41.999Z,21.60
2022-11-22T23:56:18.988Z,18.33
2022-11-22T23:58:48.330Z,18.35
